< Typhoon 196736 1967 Season Typhoon 196738 >
Typhoon 196737 (GILDA)
General InformationTrack Information on Google Maps || Disaster Info.ResourceGoogle EarthGE AnimationAtom FeedGeoJSON
Detalied Best Track (Time Zone = UTC)
Year Month Day Hour Lat. Long. Pressure (hPa) Wind (kt) Class Image Chart
1967 11 7 06 9.2 160.3 1003 0 2 -- Chart
1967 11 7 12 9.1 159.8 1002 0 2 -- Chart
1967 11 7 18 8.9 159.3 1002 0 2 -- Chart
1967 11 8 00 8.6 158.8 1002 0 2 -- Chart
1967 11 8 06 8.2 158.3 1000 0 2 -- Chart
1967 11 8 12 8.1 157.9 1000 0 2 -- Chart
1967 11 8 18 8.3 157.6 998 0 2 -- Chart
1967 11 9 00 8.5 157.3 998 0 2 -- Chart
1967 11 9 06 8.3 156.8 995 0 9 -- Chart
1967 11 9 12 8.2 156.6 994 0 9 -- Chart
1967 11 9 18 9.0 156.5 992 0 9 -- Chart
1967 11 10 00 9.5 157.1 986 0 9 -- Chart
1967 11 10 06 9.9 156.3 980 0 9 -- Chart
1967 11 10 12 10.3 155.6 976 0 9 -- Chart
1967 11 10 18 10.5 154.5 975 0 9 -- Chart
1967 11 11 00 10.6 152.9 970 0 9 -- Chart
1967 11 11 06 11.2 152.0 966 0 9 -- Chart
1967 11 11 12 11.7 151.0 962 0 9 -- Chart
1967 11 11 18 12.2 150.0 962 0 9 -- Chart
1967 11 12 00 12.6 149.2 964 0 9 -- Chart
1967 11 12 06 13.1 148.3 958 0 9 -- Chart
1967 11 12 12 13.5 147.0 942 0 9 -- Chart
1967 11 12 18 13.7 146.1 935 0 9 -- Chart
1967 11 13 00 14.1 145.2 935 0 9 -- Chart
1967 11 13 06 14.5 144.1 920 0 9 -- Chart
1967 11 13 12 14.7 142.8 915 0 9 -- Chart
1967 11 13 18 15.0 141.1 910 0 9 -- Chart
1967 11 14 00 15.3 139.3 910 0 9 -- Chart
1967 11 14 06 15.6 137.6 910 0 9 -- Chart
1967 11 14 12 16.1 135.7 910 0 9 -- Chart
1967 11 14 18 16.5 134.1 910 0 9 -- Chart
1967 11 15 00 16.8 132.6 915 0 9 -- Chart
1967 11 15 06 17.3 131.2 920 0 9 -- Chart
1967 11 15 12 17.8 129.7 920 0 9 -- Chart
1967 11 15 18 18.5 128.5 925 0 9 -- Chart
1967 11 16 00 19.0 127.5 935 0 9 -- Chart
1967 11 16 06 19.6 126.4 940 0 9 -- Chart
1967 11 16 12 20.1 125.5 945 0 9 -- Chart
1967 11 16 18 20.7 124.7 950 0 9 -- Chart
1967 11 17 00 21.1 124.4 955 0 9 -- Chart
1967 11 17 06 21.6 123.7 955 0 9 -- Chart
1967 11 17 12 22.0 123.4 955 0 9 -- Chart
1967 11 17 18 22.5 122.7 960 0 9 -- Chart
1967 11 18 00 23.6 122.0 970 0 9 -- Chart
1967 11 18 06 24.0 121.2 980 0 9 -- Chart
1967 11 18 12 24.6 120.6 990 0 9 -- Chart
1967 11 18 18 25.5 120.5 995 0 9 -- Chart
1967 11 19 00 26.3 121.0 1006 0 2 -- Chart
1967 11 19 06 27.5 121.8 1010 0 2 -- Chart
1967 11 19 12 28.5 122.8 1012 0 2 -- Chart
Japan Meteorological Agency Best Track Data | Correction Date : 1989-06-01
< Typhoon 196736 1967 Season Typhoon 196738 >

Help